Time;durP1;ratioP1;P1;durP2;ratioP2;P2;SDS_P1;SDS_P2;PMS_P1;PMS_P2;Temp;Humidity;BMP_temperature;BMP_pressure;BME280_temperature;BME280_humidity;BME280_pressure;Samples;Min_cycle;Max_cycle;Signal;HPM_P1;HPM_P2
2022/11/11 00:00:49;;;;;;;17.90;8.85;;;;;;;5.55;100.00;101888.03;5002820;28;20203;-74
2022/11/11 00:03:16;;;;;;;15.23;9.50;;;;;;;5.47;100.00;101893.34;5008606;28;20228;-74
2022/11/11 00:05:44;;;;;;;19.85;10.07;;;;;;;5.34;100.00;101888.94;5010123;28;20290;-74
2022/11/11 00:08:10;;;;;;;23.27;10.80;;;;;;;5.32;100.00;101891.59;5012518;28;20289;-75
2022/11/11 00:10:37;;;;;;;16.55;10.68;;;;;;;5.33;100.00;101896.03;5001196;28;20278;-73
2022/11/11 00:13:05;;;;;;;18.83;11.05;;;;;;;5.36;100.00;101889.78;5005386;28;20306;-75
2022/11/11 00:15:31;;;;;;;22.42;11.40;;;;;;;5.29;100.00;101885.34;5007073;28;20202;-75
2022/11/11 00:26:17;;;;;;;15.65;9.38;;;;;;;4.99;100.00;101895.13;4943933;29;20589;-76
2022/11/11 00:28:43;;;;;;;15.00;8.90;;;;;;;4.86;100.00;101901.31;4949101;28;20203;-74
2022/11/11 00:31:12;;;;;;;18.45;10.95;;;;;;;4.93;100.00;101897.75;4950934;29;20208;-74
2022/11/11 00:33:39;;;;;;;15.57;9.80;;;;;;;5.05;100.00;101899.59;4952224;29;20241;-73
2022/11/11 00:36:07;;;;;;;18.10;9.82;;;;;;;5.16;100.00;101903.16;4946385;29;20202;-76
2022/11/11 00:38:46;;;;;;;16.60;10.93;;;;;;;5.18;100.00;101907.63;4947504;29;20222;-75
2022/11/11 00:41:14;;;;;;;18.45;12.30;;;;;;;5.20;100.00;101904.91;4942234;29;20208;-74
2022/11/11 00:43:41;;;;;;;24.00;13.38;;;;;;;5.30;100.00;101904.06;4942221;28;20690;-74
2022/11/11 00:51:38;;;;;;;17.10;10.45;;;;;;;4.88;100.00;101910.22;4946258;28;20262;-77
2022/11/11 00:54:05;;;;;;;18.23;11.07;;;;;;;4.72;100.00;101914.63;4941283;29;20226;-75
2022/11/11 00:56:31;;;;;;;21.25;10.50;;;;;;;4.60;100.00;101918.16;4948725;29;20203;-76
2022/11/11 00:58:58;;;;;;;19.00;10.52;;;;;;;4.59;100.00;101911.94;4950520;28;20230;-74
2022/11/11 01:01:25;;;;;;;18.77;11.18;;;;;;;4.55;100.00;101904.81;5007062;28;20697;-76
2022/11/11 01:03:51;;;;;;;23.05;13.63;;;;;;;4.75;100.00;101912.00;5008602;28;20228;-75
2022/11/11 01:06:18;;;;;;;19.02;10.70;;;;;;;4.77;100.00;101913.78;5008933;28;20207;-74
2022/11/11 01:08:46;;;;;;;19.65;10.73;;;;;;;4.55;100.00;101902.13;5005578;28;20200;-75
2022/11/11 01:11:13;;;;;;;16.83;9.75;;;;;;;4.52;100.00;101896.81;5000017;28;20208;-74
2022/11/11 01:13:40;;;;;;;14.65;9.30;;;;;;;4.48;100.00;101896.78;5006653;28;20571;-74
2022/11/11 01:16:10;;;;;;;17.10;9.40;;;;;;;4.42;100.00;101886.09;5004856;28;20203;-75
2022/11/11 01:18:37;;;;;;;16.20;10.43;;;;;;;4.43;100.00;101879.84;5000146;28;20229;-75
2022/11/11 01:21:06;;;;;;;16.88;10.18;;;;;;;4.26;100.00;101888.69;5007340;28;20576;-74
2022/11/11 01:23:35;;;;;;;19.70;10.85;;;;;;;4.32;100.00;101885.13;5012155;28;20357;-74
2022/11/11 01:26:04;;;;;;;18.95;11.77;;;;;;;4.50;100.00;101889.66;5008458;28;20213;-75
2022/11/11 01:28:32;;;;;;;38.10;18.98;;;;;;;4.65;100.00;101892.38;5006331;28;20195;-75
2022/11/11 01:31:03;;;;;;;27.73;17.08;;;;;;;4.77;100.00;101895.09;5010614;28;20210;-77
2022/11/11 01:33:29;;;;;;;32.17;16.23;;;;;;;4.85;100.00;101891.53;5004491;28;20234;-74
2022/11/11 01:35:56;;;;;;;23.33;11.85;;;;;;;4.92;100.00;101883.53;5005357;28;20212;-75
2022/11/11 01:38:22;;;;;;;22.63;13.05;;;;;;;4.89;100.00;101880.00;5005829;28;20227;-75
2022/11/11 01:40:49;;;;;;;23.60;13.00;;;;;;;4.87;100.00;101866.63;5006100;28;20199;-75
2022/11/11 01:43:21;;;;;;;22.17;13.57;;;;;;;4.85;100.00;101878.19;5008972;28;20231;-74
2022/11/11 01:45:51;;;;;;;25.88;14.80;;;;;;;4.89;100.00;101890.66;5007375;28;20195;-73
2022/11/11 01:51:07;;;;;;;24.60;15.25;;;;;;;5.03;100.00;101894.25;5009919;28;20215;-76
2022/11/11 01:53:34;;;;;;;24.80;14.65;;;;;;;5.06;100.00;101888.88;5004962;28;20704;-74
2022/11/11 01:56:02;;;;;;;24.02;15.02;;;;;;;5.10;100.00;101889.78;5006736;28;20235;-74
2022/11/11 01:58:30;;;;;;;30.98;16.35;;;;;;;5.10;100.00;101898.69;5007279;28;20256;-75
2022/11/11 02:00:58;;;;;;;29.65;15.77;;;;;;;5.13;100.00;101895.13;5009153;28;20218;-76
2022/11/11 02:03:27;;;;;;;25.35;13.02;;;;;;;4.99;100.00;101898.66;5009062;28;20578;-73
2022/11/11 02:05:55;;;;;;;28.98;17.00;;;;;;;5.04;100.00;101893.34;5018526;28;20239;-73
2022/11/11 02:08:32;;;;;;;25.90;14.80;;;;;;;5.06;100.00;101899.56;5008423;28;20275;-74
2022/11/11 02:11:02;;;;;;;23.67;13.80;;;;;;;4.94;100.00;101902.25;5022630;28;20335;-74
2022/11/11 02:16:16;;;;;;;24.67;15.55;;;;;;;4.81;100.00;101886.19;5006698;28;20583;-74
2022/11/11 02:18:43;;;;;;;27.27;15.25;;;;;;;4.92;100.00;101872.84;5017207;28;20227;-73
2022/11/11 02:21:23;;;;;;;28.05;18.02;;;;;;;4.88;100.00;101876.41;5016019;28;20205;-74
2022/11/11 02:24:02;;;;;;;26.15;15.32;;;;;;;4.92;100.00;101871.97;5018182;28;20223;-74
2022/11/11 02:26:31;;;;;;;24.77;16.00;;;;;;;4.95;100.00;101872.88;5000186;28;20206;-74
2022/11/11 02:28:59;;;;;;;27.80;17.30;;;;;;;4.98;100.00;101882.66;5005055;28;20198;-76
2022/11/11 02:31:27;;;;;;;28.08;15.75;;;;;;;5.01;100.00;101885.34;5010316;28;20194;-77
2022/11/11 02:33:54;;;;;;;33.75;18.73;;;;;;;5.02;100.00;101887.13;5006892;28;20237;-75
2022/11/11 02:36:21;;;;;;;28.63;16.58;;;;;;;5.16;100.00;101889.81;5010119;28;20203;-75
2022/11/11 02:38:48;;;;;;;34.85;17.23;;;;;;;5.11;100.00;101891.56;5007516;28;20230;-74
2022/11/11 02:44:00;;;;;;;22.70;13.10;;;;;;;5.05;100.00;101910.28;5007650;28;20239;-74
2022/11/11 02:46:27;;;;;;;28.13;13.95;;;;;;;4.97;100.00;101918.25;5010940;28;20290;-75
2022/11/11 02:48:53;;;;;;;27.10;15.57;;;;;;;4.93;100.00;101914.72;5011309;28;20204;-75
2022/11/11 02:51:20;;;;;;;22.60;13.27;;;;;;;5.01;100.00;101934.28;5011029;28;20199;-75
2022/11/11 02:53:46;;;;;;;23.35;13.02;;;;;;;5.03;100.00;101926.28;5011163;28;20242;-75
2022/11/11 02:57:05;;;;;;;28.45;14.85;;;;;;;4.97;100.00;101921.81;5005698;28;20206;-74
2022/11/11 02:59:02;;;;;;;29.65;15.30;;;;;;;5.00;100.00;101929.84;4999003;28;20257;-75
2022/11/11 03:01:28;;;;;;;29.90;14.90;;;;;;;4.81;100.00;101920.00;5004757;28;20209;-75
2022/11/11 03:03:55;;;;;;;27.80;13.32;;;;;;;4.85;100.00;101923.56;5025427;28;20755;-75
2022/11/11 03:06:21;;;;;;;32.10;14.75;;;;;;;4.72;100.00;101928.88;5024511;28;20308;-75
2022/11/11 03:08:48;;;;;;;36.03;17.13;;;;;;;4.74;100.00;101932.44;5025041;28;20212;-75
2022/11/11 03:11:14;;;;;;;40.83;16.90;;;;;;;4.80;100.00;101937.78;5032706;28;20258;-74
2022/11/11 03:13:41;;;;;;;27.75;11.73;;;;;;;4.84;100.00;101940.47;5020927;28;20233;-74
2022/11/11 03:17:38;;;;;;;22.10;12.65;;;;;;;4.83;100.00;101939.59;5028325;28;20310;-74
2022/11/11 03:18:54;;;;;;;21.02;11.52;;;;;;;4.81;100.00;101941.34;5027134;28;20224;-74
2022/11/11 03:21:21;;;;;;;23.20;12.57;;;;;;;4.83;100.00;101946.72;5033963;28;20203;-74
2022/11/11 03:23:47;;;;;;;35.30;13.00;;;;;;;4.90;100.00;101953.84;5031668;28;20693;-74
2022/11/11 03:26:14;;;;;;;22.77;11.23;;;;;;;4.94;100.00;101958.31;5015071;28;20207;-75
2022/11/11 03:28:41;;;;;;;45.33;14.32;;;;;;;4.83;100.00;101957.38;5012534;28;20227;-75
2022/11/11 03:31:09;;;;;;;33.20;13.25;;;;;;;4.94;100.00;101963.66;5010981;28;20614;-75
2022/11/11 03:33:35;;;;;;;25.63;13.10;;;;;;;5.03;100.00;101958.34;5011580;28;20229;-76
2022/11/11 03:36:02;;;;;;;29.95;13.07;;;;;;;4.95;100.00;101957.41;5012366;28;20203;-74
2022/11/11 03:38:27;;;;;;;22.17;11.73;;;;;;;5.01;100.00;101962.78;5001945;28;20200;-74
2022/11/11 03:40:56;;;;;;;33.03;14.07;;;;;;;4.90;100.00;101956.50;5005950;28;20203;-74
2022/11/11 03:43:24;;;;;;;74.10;17.42;;;;;;;4.75;100.00;101966.25;5009939;28;20329;-74
2022/11/11 03:45:52;;;;;;;35.97;14.55;;;;;;;4.81;100.00;101963.59;5016777;28;20208;-75
2022/11/11 03:48:20;;;;;;;64.43;18.63;;;;;;;4.73;100.00;101959.16;5008502;28;20292;-75
2022/11/11 03:50:47;;;;;;;41.38;16.70;;;;;;;4.72;100.00;101958.22;5016576;28;20286;-74
2022/11/11 03:53:14;;;;;;;82.53;18.70;;;;;;;4.63;100.00;101951.97;5020677;28;20288;-74
2022/11/11 03:55:41;;;;;;;87.72;19.13;;;;;;;4.69;100.00;101946.66;5019861;28;20203;-75
2022/11/11 03:58:08;;;;;;;76.55;17.92;;;;;;;4.56;100.00;101946.59;5011378;28;20204;-75
2022/11/11 04:00:35;;;;;;;112.43;19.80;;;;;;;4.71;100.00;101953.78;5004191;28;20225;-75
2022/11/11 04:11:19;;;;;;;108.93;17.17;;;;;;;4.51;100.00;101964.38;4952489;29;20213;-75
2022/11/11 04:16:32;;;;;;;28.65;13.18;;;;;;;4.64;100.00;101980.47;4951870;28;20711;-75
2022/11/11 04:21:44;;;;;;;47.80;14.88;;;;;;;4.48;100.00;101982.16;4948406;29;20291;-75
2022/11/11 04:26:59;;;;;;;114.25;18.67;;;;;;;4.63;100.00;101979.53;4953074;29;20273;-75
2022/11/11 04:29:27;;;;;;;52.53;14.60;;;;;;;4.68;100.00;101982.22;4951144;29;20598;-76
2022/11/11 04:34:38;;;;;;;60.78;13.50;;;;;;;4.58;100.00;101974.19;4949495;28;20841;-76
2022/11/11 04:37:06;;;;;;;56.20;14.23;;;;;;;4.59;100.00;101973.31;4943786;29;20202;-75
2022/11/11 04:42:17;;;;;;;29.45;12.88;;;;;;;4.77;100.00;101967.16;4947566;28;20238;-74
2022/11/11 04:47:32;;;;;;;103.85;17.83;;;;;;;4.74;100.00;101967.13;4946551;28;20218;-75
2022/11/11 04:49:59;;;;;;;68.05;15.30;;;;;;;4.85;100.00;101972.50;5003454;28;20199;-74
2022/11/11 04:52:27;;;;;;;24.35;13.05;;;;;;;5.03;100.00;101958.34;5006095;28;20225;-73
2022/11/11 04:57:41;;;;;;;38.03;14.25;;;;;;;4.78;100.00;101944.91;5000192;28;20239;-74
2022/11/11 05:00:10;;;;;;;30.60;13.73;;;;;;;4.68;100.00;101944.88;5002442;28;20223;-74
2022/11/11 05:05:21;;;;;;;95.63;16.85;;;;;;;4.64;100.00;101959.13;5010656;28;20207;-74
2022/11/11 05:10:33;;;;;;;48.90;13.93;;;;;;;4.59;100.00;101962.66;5005813;28;20220;-75
2022/11/11 05:21:21;;;;;;;27.00;13.90;;;;;;;4.73;100.00;101981.38;5001794;28;20253;-76
2022/11/11 05:26:34;;;;;;;71.10;16.33;;;;;;;4.72;100.00;101984.91;5007714;28;20273;-73
2022/11/11 05:29:01;;;;;;;73.28;16.05;;;;;;;4.79;100.00;101989.41;5010127;28;20202;-73
2022/11/11 05:31:27;;;;;;;45.03;14.15;;;;;;;4.81;100.00;101990.28;5011683;28;20201;-74
2022/11/11 05:33:54;;;;;;;42.85;15.48;;;;;;;4.87;100.00;102000.13;5007341;28;20233;-74
2022/11/11 05:36:21;;;;;;;56.30;14.80;;;;;;;4.89;100.00;101986.78;5002173;28;20214;-74
2022/11/11 05:38:47;;;;;;;39.00;15.25;;;;;;;4.87;100.00;101992.09;5004063;28;20197;-75
2022/11/11 05:41:15;;;;;;;46.00;15.77;;;;;;;4.95;100.00;101993.03;5010358;28;20215;-74
2022/11/11 05:43:42;;;;;;;36.00;14.50;;;;;;;4.90;100.00;101986.75;5007797;28;20228;-74
2022/11/11 05:46:08;;;;;;;69.93;16.23;;;;;;;5.04;100.00;101986.81;5009086;28;20198;-74
2022/11/11 05:49:13;;;;;;;55.15;16.90;;;;;;;5.06;100.00;101987.69;5008487;28;20202;-73
2022/11/11 05:51:26;;;;;;;45.40;17.45;;;;;;;5.21;100.00;101994.88;5010831;28;20209;-74
2022/11/11 05:53:53;;;;;;;53.60;16.40;;;;;;;5.02;100.00;101999.28;4999471;28;20231;-75
2022/11/11 05:56:21;;;;;;;76.30;18.35;;;;;;;4.99;100.00;101999.25;5008224;28;20206;-73
2022/11/11 05:58:48;;;;;;;112.85;19.58;;;;;;;4.79;100.00;102002.78;5005201;28;20196;-75
2022/11/11 06:01:14;;;;;;;68.25;16.13;;;;;;;4.83;100.00;102002.78;5006372;28;20200;-75
2022/11/11 06:03:41;;;;;;;72.60;26.00;;;;;;;4.97;100.00;102006.38;5006182;28;20227;-74
2022/11/11 06:06:07;;;;;;;85.63;19.67;;;;;;;5.14;100.00;102010.00;5012167;28;20287;-75
2022/11/11 06:08:34;;;;;;;74.63;18.20;;;;;;;5.18;100.00;102009.13;5001793;28;20699;-77
2022/11/11 06:11:01;;;;;;;45.50;15.88;;;;;;;5.22;100.00;102013.59;5007347;28;20193;-73
2022/11/11 06:13:28;;;;;;;57.10;19.00;;;;;;;5.07;100.00;102012.66;5004585;28;20229;-74
2022/11/11 06:15:56;;;;;;;61.28;16.58;;;;;;;5.04;100.00;102017.97;5003481;28;20215;-76
2022/11/11 06:18:23;;;;;;;30.60;14.65;;;;;;;5.17;100.00;102014.44;5008232;28;20728;-74
2022/11/11 06:20:52;;;;;;;35.53;15.75;;;;;;;5.36;100.00;102026.97;5009620;28;20222;-74
2022/11/11 06:23:19;;;;;;;37.22;15.40;;;;;;;5.54;100.00;102031.47;5012862;28;20312;-73
2022/11/11 06:28:31;;;;;;;55.15;18.08;;;;;;;5.67;100.00;102040.38;5014279;28;20640;-75
2022/11/11 06:30:58;;;;;;;80.57;18.45;;;;;;;5.57;100.00;102034.13;5010446;28;20202;-75
2022/11/11 06:33:26;;;;;;;26.95;14.15;;;;;;;5.62;100.00;102035.00;5007885;28;20322;-74
2022/11/11 06:35:53;;;;;;;35.85;15.55;;;;;;;5.73;100.00;102042.16;5009623;28;20224;-74
2022/11/11 06:38:19;;;;;;;44.92;15.77;;;;;;;5.79;100.00;102044.84;5009358;28;20582;-75
2022/11/11 06:40:46;;;;;;;28.35;14.70;;;;;;;5.81;100.00;102057.34;5004586;28;20240;-74
2022/11/11 06:43:13;;;;;;;37.40;15.25;;;;;;;5.84;100.00;102053.75;5003342;28;20309;-74
2022/11/11 06:45:40;;;;;;;48.42;15.85;;;;;;;5.79;100.00;102055.56;5016067;28;20202;-74
2022/11/11 06:48:07;;;;;;;30.00;15.35;;;;;;;5.83;100.00;102052.88;5012968;28;20201;-74
2022/11/11 06:50:35;;;;;;;25.33;13.65;;;;;;;5.91;100.00;102044.84;5012802;28;20201;-75
2022/11/11 06:53:05;;;;;;;43.30;20.90;;;;;;;5.93;100.00;102048.41;5004945;28;20229;-74
2022/11/11 06:55:32;;;;;;;33.42;15.95;;;;;;;5.93;100.00;102051.09;5003525;28;20207;-75
2022/11/11 06:58:05;;;;;;;63.65;18.20;;;;;;;5.80;100.00;102051.97;4982160;28;20202;-76
2022/11/11 07:00:31;;;;;;;36.90;16.70;;;;;;;5.87;100.00;102053.75;5013374;28;20288;-76
2022/11/11 07:02:59;;;;;;;26.13;14.23;;;;;;;5.92;100.00;102051.97;4999420;28;20233;-77
2022/11/11 07:05:26;;;;;;;76.45;17.30;;;;;;;5.71;100.00;102049.28;5008183;28;20201;-75
2022/11/11 07:07:52;;;;;;;33.97;14.02;;;;;;;5.72;100.00;102056.41;5012360;28;20340;-74
2022/11/11 07:10:19;;;;;;;71.85;17.02;;;;;;;5.85;100.00;102053.75;5016659;28;20211;-75
2022/11/11 07:12:45;;;;;;;29.15;13.88;;;;;;;5.84;100.00;102059.13;5007590;28;20232;-74
2022/11/11 07:15:12;;;;;;;46.83;14.68;;;;;;;5.87;100.00;102061.78;5008239;28;20236;-75
2022/11/11 07:17:38;;;;;;;58.25;16.17;;;;;;;5.82;100.00;102069.78;5016766;28;20201;-74
2022/11/11 07:20:08;;;;;;;36.17;14.63;;;;;;;5.93;100.00;102069.81;5014354;28;20225;-77
2022/11/11 07:22:36;;;;;;;42.10;14.95;;;;;;;5.94;100.00;102073.38;5008433;28;20229;-75
2022/11/11 07:25:03;;;;;;;43.60;15.80;;;;;;;6.03;100.00;102074.28;5008353;28;20649;-74
2022/11/11 07:27:29;;;;;;;30.42;14.20;;;;;;;6.08;100.00;102071.63;5011957;28;20216;-74
2022/11/11 07:29:56;;;;;;;41.20;14.70;;;;;;;6.17;100.00;102092.13;5006450;28;20211;-75
2022/11/11 07:32:22;;;;;;;57.47;15.70;;;;;;;6.15;100.00;102077.84;5009822;28;20251;-77
2022/11/11 07:34:49;;;;;;;37.97;14.65;;;;;;;6.26;100.00;102076.97;5011383;28;20205;-74
2022/11/11 07:37:17;;;;;;;42.78;13.88;;;;;;;6.11;100.00;102084.13;5019271;28;20580;-75
2022/11/11 07:39:44;;;;;;;37.15;14.63;;;;;;;6.01;100.00;102081.41;5009904;28;20218;-74
2022/11/11 07:42:10;;;;;;;49.90;14.32;;;;;;;6.10;100.00;102083.22;5018095;28;20598;-75
2022/11/11 07:44:37;;;;;;;33.08;14.65;;;;;;;6.28;100.00;102097.47;5012448;28;20198;-75
2022/11/11 07:47:03;;;;;;;39.85;13.60;;;;;;;6.26;100.00;102094.78;5009956;28;20206;-74
2022/11/11 07:49:30;;;;;;;31.58;13.60;;;;;;;6.43;100.00;102095.69;5010157;28;20216;-74
2022/11/11 07:51:57;;;;;;;40.10;12.77;;;;;;;6.34;100.00;102100.16;5004262;28;20336;-76
2022/11/11 07:54:25;;;;;;;31.40;14.35;;;;;;;6.38;100.00;102100.16;5011138;28;20285;-74
2022/11/11 07:56:52;;;;;;;35.83;13.70;;;;;;;6.57;100.00;102097.44;5010590;28;20205;-76
2022/11/11 07:59:18;;;;;;;27.30;13.13;;;;;;;6.68;100.00;102109.03;5014158;28;20288;-74
2022/11/11 08:01:45;;;;;;;30.73;14.88;;;;;;;6.77;100.00;102111.69;5009748;28;21135;-74
2022/11/11 08:04:11;;;;;;;33.00;14.15;;;;;;;6.81;100.00;102116.16;5006682;28;20649;-75
2022/11/11 08:06:38;;;;;;;25.73;13.63;;;;;;;6.93;100.00;102128.63;5015264;28;20216;-74
2022/11/11 08:09:05;;;;;;;46.95;14.18;;;;;;;6.99;100.00;102133.06;5013292;28;20652;-74
2022/11/11 08:14:16;;;;;;;39.10;14.65;;;;;;;7.20;100.00;102141.03;5011183;28;20197;-76
2022/11/11 08:16:43;;;;;;;46.08;13.05;;;;;;;7.23;100.00;102143.69;5001117;28;20282;-74
2022/11/11 08:19:09;;;;;;;34.50;13.48;;;;;;;7.26;100.00;102145.50;4998552;28;20203;-75
2022/11/11 08:21:36;;;;;;;44.80;13.98;;;;;;;7.30;100.00;102147.25;5005887;28;20308;-75
2022/11/11 08:24:03;;;;;;;27.85;13.32;;;;;;;7.29;100.00;102142.78;5007897;28;20242;-75
2022/11/11 08:26:29;;;;;;;30.92;12.70;;;;;;;7.44;100.00;102149.84;5012493;28;20873;-76
2022/11/11 08:28:57;;;;;;;24.52;14.15;;;;;;;7.59;100.00;102148.91;5004999;28;20198;-74
2022/11/11 08:31:24;;;;;;;40.25;13.35;;;;;;;7.73;100.00;102152.41;5004216;28;20202;-75
2022/11/11 08:33:51;;;;;;;25.60;13.68;;;;;;;7.89;100.00;102139.78;5000719;28;20238;-74
2022/11/11 08:36:17;;;;;;;27.90;14.82;;;;;;;7.89;100.00;102145.13;5010494;28;20574;-74
2022/11/11 08:38:44;;;;;;;25.65;12.43;;;;;;;7.84;100.00;102146.97;5011801;28;20612;-75
2022/11/11 08:41:10;;;;;;;26.55;14.05;;;;;;;7.78;100.00;102147.00;5046078;22;20226;-73
2022/11/11 08:43:37;;;;;;;37.60;12.95;;;;;;;7.67;100.00;102147.97;5031671;28;20202;-74
2022/11/11 08:46:05;;;;;;;38.35;14.88;;;;;;;7.84;100.00;102137.13;5036496;28;20261;-74
2022/11/11 08:48:32;;;;;;;25.00;12.90;;;;;;;7.83;100.00;102139.84;5034484;28;20284;-74
2022/11/11 08:50:59;;;;;;;37.42;15.52;;;;;;;7.70;100.00;102139.91;5043124;28;20209;-75
2022/11/11 08:53:26;;;;;;;27.40;14.48;;;;;;;7.55;100.00;102134.59;5037057;28;20201;-73
2022/11/11 08:55:53;;;;;;;34.58;17.02;;;;;;;7.51;100.00;102132.88;5041992;28;20296;-73
2022/11/11 08:58:20;;;;;;;35.78;17.65;;;;;;;7.58;100.00;102136.41;5041159;28;20206;-74
2022/11/11 09:00:46;;;;;;;34.65;17.38;;;;;;;7.51;100.00;102140.91;5050975;28;20233;-74
2022/11/11 09:03:14;;;;;;;33.60;17.48;;;;;;;7.46;100.00;102145.38;5039781;28;20194;-73
2022/11/11 09:05:41;;;;;;;30.30;15.40;;;;;;;7.26;100.00;102148.16;5038711;28;20190;-75
2022/11/11 09:08:08;;;;;;;33.00;18.42;;;;;;;7.08;100.00;102141.09;5046922;28;20228;-73
2022/11/11 09:10:36;;;;;;;35.25;16.98;;;;;;;7.20;100.00;102140.16;5049065;28;20263;-74
2022/11/11 09:13:04;;;;;;;34.88;17.35;;;;;;;7.20;100.00;102135.66;5039764;28;20205;-72
2022/11/11 09:15:31;;;;;;;35.22;18.85;;;;;;;7.45;100.00;102135.56;5033220;28;20185;-74
2022/11/11 09:17:57;;;;;;;35.20;18.85;;;;;;;7.62;100.00;102128.34;5035251;28;20202;-73
2022/11/11 09:20:25;;;;;;;34.50;18.27;;;;;;;7.29;100.00;102121.34;5047600;28;20250;-73
2022/11/11 09:22:53;;;;;;;39.03;19.25;;;;;;;7.21;100.00;102124.06;5040014;28;20292;-73
2022/11/11 09:25:20;;;;;;;32.63;18.30;;;;;;;7.47;100.00;102131.09;5043913;28;20211;-72
2022/11/11 09:27:55;;;;;;;37.17;18.83;;;;;;;7.41;100.00;102134.69;5045856;28;20288;-74
2022/11/11 09:30:21;;;;;;;31.98;17.23;;;;;;;7.40;100.00;102138.28;5046302;28;20570;-73
2022/11/11 09:32:48;;;;;;;30.58;17.52;;;;;;;7.46;100.00;102131.97;5048511;28;20211;-74
2022/11/11 09:35:15;;;;;;;29.77;16.80;;;;;;;7.35;100.00;102136.50;5037980;28;20269;-73
2022/11/11 09:37:55;;;;;;;34.13;17.77;;;;;;;7.52;100.00;102140.00;5031431;28;20300;-75
2022/11/11 09:40:23;;;;;;;34.17;17.75;;;;;;;7.60;100.00;102135.50;5036303;28;20226;-71
2022/11/11 09:43:03;;;;;;;39.65;18.60;;;;;;;7.61;100.00;102142.63;5036726;28;20582;-73
2022/11/11 09:45:39;;;;;;;33.30;17.17;;;;;;;7.69;100.00;102146.16;5040979;28;20197;-73
2022/11/11 09:48:20;;;;;;;33.92;18.73;;;;;;;7.81;100.00;102147.00;5026740;28;20211;-73
2022/11/11 09:50:53;;;;;;;41.88;20.15;;;;;;;7.90;100.00;102141.56;5032609;28;20218;-73
2022/11/11 09:53:27;;;;;;;40.40;22.65;;;;;;;7.85;100.00;102154.13;5046488;28;20248;-72
2022/11/11 09:56:00;;;;;;;37.67;22.80;;;;;;;7.69;100.00;102151.53;5045444;28;20723;-73
2022/11/11 09:58:32;;;;;;;43.05;23.60;;;;;;;7.70;100.00;102142.56;5055739;28;20211;-74
2022/11/11 10:01:06;;;;;;;40.58;22.33;;;;;;;7.93;100.00;102153.16;5056553;28;20239;-74
2022/11/11 10:03:38;;;;;;;40.55;23.95;;;;;;;7.80;100.00;102150.56;5039455;28;20186;-73
2022/11/11 10:06:09;;;;;;;41.58;22.77;;;;;;;7.85;100.00;102140.72;5035214;28;20201;-73
2022/11/11 10:08:43;;;;;;;36.42;22.48;;;;;;;7.84;100.00;102136.25;5027691;28;20285;-73
2022/11/11 10:11:16;;;;;;;36.83;20.33;;;;;;;7.69;100.00;102135.44;5036207;28;20412;-73
2022/11/11 10:13:43;;;;;;;35.03;21.50;;;;;;;7.75;100.00;102125.56;5033409;28;20196;-74
2022/11/11 10:16:19;;;;;;;36.20;21.02;;;;;;;7.77;100.00;102139.88;5036285;28;20213;-74
2022/11/11 10:18:59;;;;;;;39.38;21.30;;;;;;;7.82;100.00;102124.63;5035831;28;20668;-74
2022/11/11 10:21:34;;;;;;;33.42;20.77;;;;;;;7.78;100.00;102133.59;5047378;28;20343;-74
2022/11/11 10:24:11;;;;;;;31.08;20.40;;;;;;;7.67;100.00;102128.31;5043824;28;20202;-73
2022/11/11 10:26:40;;;;;;;30.70;19.63;;;;;;;7.80;100.00;102132.72;5044048;28;20196;-74
2022/11/11 10:29:14;;;;;;;37.45;21.40;;;;;;;7.98;100.00;102138.81;5057483;28;20584;-72
2022/11/11 10:31:43;;;;;;;33.67;19.58;;;;;;;8.04;100.00;102145.03;5038382;28;20570;-73
2022/11/11 10:34:11;;;;;;;30.63;20.98;;;;;;;8.13;100.00;102147.66;5034696;28;20263;-73
2022/11/11 10:36:44;;;;;;;29.90;20.05;;;;;;;8.24;100.00;102150.28;5039011;28;20241;-74
2022/11/11 10:39:18;;;;;;;27.67;19.40;;;;;;;8.12;100.00;102145.00;5040556;28;20241;-73
2022/11/11 10:41:47;;;;;;;31.10;19.73;;;;;;;8.09;100.00;102145.91;5025259;28;20714;-73
2022/11/11 10:44:22;;;;;;;30.40;20.15;;;;;;;7.93;100.00;102141.53;5032460;28;20205;-74
2022/11/11 10:47:01;;;;;;;30.25;20.13;;;;;;;8.01;100.00;102134.34;5028590;28;20205;-73
2022/11/11 10:49:31;;;;;;;34.28;20.95;;;;;;;8.08;100.00;102135.19;5037367;28;20273;-74
2022/11/11 10:52:05;;;;;;;31.20;20.25;;;;;;;8.03;100.00;102139.72;5049905;28;20218;-74
2022/11/11 10:54:40;;;;;;;32.35;21.90;;;;;;;8.01;100.00;102128.09;5037428;28;20206;-74
2022/11/11 10:57:13;;;;;;;32.65;20.55;;;;;;;8.05;100.00;102127.16;5037166;28;20205;-73
2022/11/11 10:59:45;;;;;;;31.15;20.73;;;;;;;8.11;100.00;102125.31;5037227;28;20286;-73
2022/11/11 11:02:19;;;;;;;33.33;21.55;;;;;;;8.27;100.00;102126.06;5042421;28;20216;-74
2022/11/11 11:04:50;;;;;;;32.88;21.45;;;;;;;8.11;100.00;102129.78;5037278;28;20280;-74
2022/11/11 11:07:22;;;;;;;38.55;23.02;;;;;;;8.26;100.00;102129.69;5049448;28;20350;-74
2022/11/11 11:09:55;;;;;;;29.88;19.13;;;;;;;8.36;100.00;102126.00;5046975;28;20289;-74
2022/11/11 11:12:28;;;;;;;31.08;20.25;;;;;;;8.44;100.00;102131.34;5036408;28;20233;-71
2022/11/11 11:15:00;;;;;;;35.88;22.08;;;;;;;8.68;100.00;102134.69;5037080;28;20204;-72
2022/11/11 11:17:32;;;;;;;32.08;21.05;;;;;;;8.74;100.00;102134.66;5052442;28;20192;-72
2022/11/11 11:20:12;;;;;;;31.15;19.80;;;;;;;8.61;100.00;102141.03;5050915;28;20246;-72
2022/11/11 11:22:47;;;;;;;37.58;21.45;;;;;;;8.48;100.00;102135.78;5047739;28;20292;-73
2022/11/11 11:25:17;;;;;;;30.15;18.95;;;;;;;8.38;100.00;102139.41;5058193;28;20270;-72
2022/11/11 11:27:44;;;;;;;30.77;20.40;;;;;;;8.36;100.00;102125.09;5052110;28;20202;-74
2022/11/11 11:30:12;;;;;;;34.10;21.42;;;;;;;8.38;100.00;102136.72;5054384;28;20667;-72
2022/11/11 11:32:41;;;;;;;30.67;20.55;;;;;;;8.33;100.00;102150.19;5054339;28;20220;-72
2022/11/11 11:35:08;;;;;;;31.40;21.65;;;;;;;8.58;100.00;102141.97;5056299;28;20185;-74
2022/11/11 11:37:48;;;;;;;35.08;20.83;;;;;;;8.71;100.00;102132.00;5059671;28;20224;-73
2022/11/11 11:40:16;;;;;;;33.20;22.23;;;;;;;8.86;100.00;102129.13;5062646;28;20225;-74
2022/11/11 11:42:43;;;;;;;31.23;20.63;;;;;;;8.89;100.00;102129.13;5056246;28;20278;-73
2022/11/11 11:45:21;;;;;;;29.00;19.73;;;;;;;9.06;100.00;102139.66;5058179;28;20201;-75
2022/11/11 11:48:09;;;;;;;30.92;20.00;;;;;;;9.01;100.00;102136.16;5048906;28;20591;-73
2022/11/11 11:50:50;;;;;;;33.30;21.35;;;;;;;9.18;100.00;102144.03;5042362;28;20308;-74
2022/11/11 11:53:30;;;;;;;31.15;19.67;;;;;;;9.24;100.00;102148.44;5054087;28;20201;-73
2022/11/11 11:56:08;;;;;;;32.90;21.75;;;;;;;9.22;100.00;102140.38;5040905;28;20281;-73
2022/11/11 11:58:48;;;;;;;30.13;20.65;;;;;;;9.30;100.00;102143.88;5048708;28;20193;-74
2022/11/11 12:01:21;;;;;;;31.00;19.85;;;;;;;9.42;100.00;102137.44;5053676;28;20287;-73
2022/11/11 12:04:05;;;;;;;33.20;21.75;;;;;;;9.40;100.00;102140.13;5032794;28;20280;-73
2022/11/11 12:06:42;;;;;;;29.23;20.30;;;;;;;9.55;100.00;102131.00;5045434;28;20193;-74
2022/11/11 12:09:27;;;;;;;30.58;22.30;;;;;;;9.45;100.00;102132.03;5040481;28;20197;-74
2022/11/11 12:12:00;;;;;;;30.58;20.75;;;;;;;9.25;100.00;102126.00;5044280;28;20565;-74
2022/11/11 12:14:45;;;;;;;30.35;21.17;;;;;;;9.35;100.00;102131.25;5054091;28;20219;-74
2022/11/11 12:17:24;;;;;;;35.35;21.63;;;;;;;9.33;100.00;102133.06;5032123;28;20635;-74
2022/11/11 12:20:01;;;;;;;33.85;20.40;;;;;;;9.31;100.00;102128.63;5033804;28;20212;-75
2022/11/11 12:22:51;;;;;;;38.80;24.98;;;;;;;9.55;100.00;102122.91;5035088;28;20245;-74
2022/11/11 12:25:23;;;;;;;36.05;23.70;;;;;;;9.40;100.00;102128.50;5036866;28;20201;-73
2022/11/11 12:28:01;;;;;;;42.40;19.67;;;;;;;9.26;100.00;102134.06;5036847;28;20572;-74
2022/11/11 12:30:28;;;;;;;32.78;20.40;;;;;;;9.50;100.00;102126.59;5044439;28;20217;-73